Time;durP1;ratioP1;P1;durP2;ratioP2;P2;SDS_P1;SDS_P2;PMS_P1;PMS_P2;Temp;Humidity;BMP_temperature;BMP_pressure;BME280_temperature;BME280_humidity;BME280_pressure;Samples;Min_cycle;Max_cycle;Signal;HPM_P1;HPM_P2
2023/08/31 00:00:00;;;;;;;35.73;34.53;;;21.90;92.50;;;;;;4952255;28;20449;-50
2023/08/31 00:02:28;;;;;;;34.10;33.10;;;21.90;92.50;;;;;;4952231;29;20485;-52
2023/08/31 00:04:55;;;;;;;34.70;33.60;;;21.80;92.40;;;;;;4951991;28;21045;-50
2023/08/31 00:07:22;;;;;;;34.23;33.20;;;21.80;92.40;;;;;;4951936;29;20452;-50
2023/08/31 00:09:50;;;;;;;34.07;33.07;;;21.80;92.40;;;;;;4952086;28;20941;-50
2023/08/31 00:12:16;;;;;;;34.07;32.97;;;21.90;92.50;;;;;;4952044;28;21032;-55
2023/08/31 00:14:43;;;;;;;33.30;32.30;;;21.80;92.40;;;;;;4951770;28;20515;-51
2023/08/31 00:17:10;;;;;;;33.40;32.40;;;21.80;92.40;;;;;;4952095;29;20540;-52
2023/08/31 00:19:39;;;;;;;33.70;32.70;;;21.90;92.50;;;;;;4952154;28;20449;-51
2023/08/31 00:22:05;;;;;;;32.97;31.97;;;21.80;92.40;;;;;;4951893;28;20481;-51
2023/08/31 00:24:36;;;;;;;34.83;33.73;;;21.80;92.40;;;;;;4951458;28;20477;-55
2023/08/31 00:27:03;;;;;;;34.80;33.70;;;21.90;92.50;;;;;;4951949;29;20503;-51
2023/08/31 00:29:30;;;;;;;34.73;33.70;;;21.80;92.40;;;;;;4951852;28;20548;-50
2023/08/31 00:31:57;;;;;;;34.10;33.10;;;21.80;92.50;;;;;;4951895;28;20445;-54
2023/08/31 00:34:24;;;;;;;31.70;30.80;;;21.80;92.40;;;;;;4943746;28;20885;-52
2023/08/31 00:36:52;;;;;;;34.33;33.33;;;21.80;92.80;;;;;;4951776;28;20445;-54
2023/08/31 00:39:20;;;;;;;34.07;33.07;;;21.80;92.40;;;;;;4951964;28;22846;-50
2023/08/31 00:41:47;;;;;;;33.53;32.53;;;21.80;92.40;;;;;;4951742;28;20455;-50
2023/08/31 00:44:14;;;;;;;31.63;30.63;;;21.80;92.40;;;;;;4951290;29;20499;-50
2023/08/31 00:46:41;;;;;;;30.70;29.80;;;21.80;92.40;;;;;;4951495;28;20500;-52
2023/08/31 00:49:09;;;;;;;32.33;31.33;;;21.80;92.40;;;;;;4951472;28;20449;-50
2023/08/31 00:51:36;;;;;;;30.37;29.47;;;21.80;92.40;;;;;;4951602;28;20448;-51
2023/08/31 00:54:05;;;;;;;31.50;30.40;;;21.80;92.50;;;;;;4951319;28;20855;-49
2023/08/31 00:56:33;;;;;;;32.73;31.73;;;21.80;92.40;;;;;;4951400;28;20531;-54
2023/08/31 00:59:00;;;;;;;32.87;31.77;;;21.80;92.40;;;;;;4951411;28;20445;-49
2023/08/31 01:01:35;;;;;;;33.10;32.10;;;21.80;92.40;;;;;;4943663;28;20503;-53
2023/08/31 01:04:17;;;;;;;33.07;31.97;;;21.80;92.50;;;;;;4951390;28;20522;-48
2023/08/31 01:06:52;;;;;;;31.60;30.60;;;21.80;92.40;;;;;;4951180;29;20526;-49
2023/08/31 01:09:36;;;;;;;30.60;29.70;;;21.80;92.40;;;;;;4951074;28;20495;-50
2023/08/31 01:12:06;;;;;;;32.53;31.43;;;21.80;92.40;;;;;;4951106;28;20449;-48
2023/08/31 01:14:39;;;;;;;32.00;31.10;;;21.80;92.40;;;;;;4951025;28;20500;-49
2023/08/31 01:17:08;;;;;;;31.97;30.97;;;21.80;92.40;;;;;;4951108;28;20456;-48
2023/08/31 01:19:48;;;;;;;32.30;31.30;;;21.80;92.40;;;;;;4950379;28;20479;-51
2023/08/31 01:22:30;;;;;;;32.10;31.10;;;21.70;92.40;;;;;;4950896;28;20449;-48
2023/08/31 01:25:01;;;;;;;31.23;30.33;;;21.80;92.40;;;;;;4950767;28;20472;-51
2023/08/31 01:27:28;;;;;;;32.23;31.23;;;21.80;92.70;;;;;;4951179;29;20536;-49
2023/08/31 01:29:56;;;;;;;32.73;31.73;;;21.80;92.40;;;;;;4950838;28;20480;-48
2023/08/31 01:32:23;;;;;;;33.43;32.43;;;21.70;92.40;;;;;;4950750;28;20456;-48
2023/08/31 01:34:51;;;;;;;31.50;30.50;;;21.70;92.40;;;;;;4950820;28;20512;-49
2023/08/31 01:37:28;;;;;;;30.63;29.73;;;21.70;92.40;;;;;;4950601;29;20453;-48
2023/08/31 01:40:03;;;;;;;32.00;31.00;;;21.70;92.30;;;;;;4950920;28;20542;-48
2023/08/31 01:42:31;;;;;;;35.23;34.03;;;21.70;92.30;;;;;;4943435;28;20440;-48
2023/08/31 01:45:02;;;;;;;32.47;31.47;;;21.70;92.40;;;;;;4950534;28;20501;-48
2023/08/31 01:47:30;;;;;;;31.77;30.77;;;21.70;92.40;;;;;;4943335;28;20445;-49
2023/08/31 01:49:57;;;;;;;32.47;31.47;;;21.70;92.30;;;;;;4950701;28;20448;-48
2023/08/31 01:52:23;;;;;;;33.53;32.43;;;21.70;92.40;;;;;;4950486;28;20475;-48
2023/08/31 01:54:50;;;;;;;33.97;32.97;;;21.70;92.40;;;;;;4950305;28;20500;-48
2023/08/31 01:57:18;;;;;;;33.27;32.27;;;21.70;92.30;;;;;;4950530;29;20883;-48
2023/08/31 01:59:45;;;;;;;33.03;32.03;;;21.70;92.30;;;;;;4950487;28;20473;-48
2023/08/31 02:02:12;;;;;;;32.17;31.17;;;21.70;92.40;;;;;;4950430;28;20447;-48
2023/08/31 02:04:39;;;;;;;33.20;32.13;;;21.70;92.30;;;;;;4950324;28;20476;-49
2023/08/31 02:07:06;;;;;;;31.70;30.80;;;21.70;92.30;;;;;;4950308;29;20476;-51
2023/08/31 02:09:33;;;;;;;32.90;31.90;;;21.70;92.30;;;;;;4950404;28;20472;-48
2023/08/31 02:12:00;;;;;;;32.10;31.10;;;21.70;92.30;;;;;;4950452;28;20477;-48
2023/08/31 02:14:30;;;;;;;31.87;30.87;;;21.70;92.30;;;;;;4949920;28;20507;-48
2023/08/31 02:16:57;;;;;;;33.77;32.77;;;21.70;92.30;;;;;;4950347;28;20476;-48
2023/08/31 02:19:24;;;;;;;32.67;31.67;;;21.70;92.30;;;;;;4950124;28;20968;-48
2023/08/31 02:21:50;;;;;;;33.00;31.90;;;21.70;92.30;;;;;;4950264;28;20472;-49
2023/08/31 02:24:17;;;;;;;32.67;31.67;;;21.60;92.30;;;;;;4949973;28;20468;-48
2023/08/31 02:26:44;;;;;;;33.43;32.37;;;21.70;92.30;;;;;;4950124;29;20509;-48
2023/08/31 02:29:11;;;;;;;33.33;32.33;;;21.60;92.30;;;;;;4950065;29;20502;-48
2023/08/31 02:31:39;;;;;;;31.93;30.93;;;21.70;92.70;;;;;;4952473;28;20475;-48
2023/08/31 02:34:06;;;;;;;33.63;32.63;;;21.60;92.30;;;;;;4953230;28;21007;-48
2023/08/31 02:36:33;;;;;;;30.60;29.70;;;21.70;92.30;;;;;;4953339;28;21065;-48
2023/08/31 02:39:00;;;;;;;33.10;32.10;;;21.60;92.20;;;;;;4953497;29;20936;-48
2023/08/31 02:41:27;;;;;;;30.83;29.93;;;21.60;92.20;;;;;;4953428;29;20476;-48
2023/08/31 02:43:54;;;;;;;33.60;32.60;;;21.60;92.20;;;;;;4953647;28;20450;-48
2023/08/31 02:46:22;;;;;;;32.90;31.80;;;21.60;92.20;;;;;;4952967;28;20511;-48
2023/08/31 02:48:51;;;;;;;32.53;31.50;;;21.60;92.20;;;;;;4953284;29;20444;-49
2023/08/31 02:51:18;;;;;;;31.40;30.40;;;21.60;92.20;;;;;;4953226;28;20900;-48
2023/08/31 02:53:45;;;;;;;32.73;31.73;;;21.60;92.20;;;;;;4953122;28;20933;-50
2023/08/31 02:56:12;;;;;;;32.10;31.10;;;21.60;92.20;;;;;;4953000;28;20964;-48
2023/08/31 02:58:39;;;;;;;31.83;30.83;;;21.60;92.20;;;;;;4953073;28;20904;-50
2023/08/31 03:01:11;;;;;;;31.87;30.87;;;21.60;92.20;;;;;;4953139;29;20503;-48
2023/08/31 03:03:38;;;;;;;35.40;34.30;;;21.60;92.20;;;;;;4953095;28;20463;-49
2023/08/31 03:06:08;;;;;;;33.90;32.90;;;21.60;92.20;;;;;;4952741;28;20492;-49
2023/08/31 03:08:35;;;;;;;36.20;35.00;;;21.60;92.20;;;;;;4953122;28;20444;-49
2023/08/31 03:11:03;;;;;;;35.70;34.50;;;21.60;92.20;;;;;;4953216;28;20526;-48
2023/08/31 03:13:30;;;;;;;32.47;31.47;;;21.60;92.20;;;;;;4952742;28;20567;-48
2023/08/31 03:15:57;;;;;;;35.87;34.77;;;21.60;92.20;;;;;;4952695;28;20503;-48
2023/08/31 03:18:24;;;;;;;34.03;33.03;;;21.60;92.20;;;;;;4952794;28;20445;-48
2023/08/31 03:20:51;;;;;;;36.00;34.90;;;21.60;92.20;;;;;;4952778;28;20538;-48
2023/08/31 03:23:19;;;;;;;38.27;37.07;;;21.60;92.20;;;;;;4952686;28;20469;-50
2023/08/31 03:25:46;;;;;;;36.50;35.40;;;21.60;92.20;;;;;;4952382;28;20468;-50
2023/08/31 03:28:13;;;;;;;35.00;33.90;;;21.60;92.20;;;;;;4952624;28;20952;-48
2023/08/31 03:30:40;;;;;;;37.07;35.87;;;21.60;92.20;;;;;;4952748;28;20887;-48
2023/08/31 03:33:07;;;;;;;35.10;34.00;;;21.50;92.10;;;;;;4952493;28;20865;-49
2023/08/31 03:35:34;;;;;;;36.60;35.50;;;21.60;92.10;;;;;;4952395;29;20915;-49
2023/08/31 03:38:01;;;;;;;37.07;35.87;;;21.50;92.10;;;;;;4952699;29;20464;-47
2023/08/31 03:40:29;;;;;;;34.27;33.27;;;21.60;92.20;;;;;;4952568;29;20445;-49
2023/08/31 03:42:56;;;;;;;35.30;34.20;;;21.50;92.10;;;;;;4951957;28;20441;-49
2023/08/31 03:45:23;;;;;;;34.83;33.73;;;21.60;92.10;;;;;;4952162;28;20495;-49
2023/08/31 03:47:50;;;;;;;34.50;33.40;;;21.50;92.10;;;;;;4952580;29;20445;-49
2023/08/31 03:50:17;;;;;;;36.43;35.30;;;21.60;92.20;;;;;;4952328;29;20472;-48
2023/08/31 03:52:44;;;;;;;35.83;34.63;;;21.60;92.10;;;;;;4952392;28;20536;-50
2023/08/31 03:55:11;;;;;;;33.83;32.83;;;21.60;92.20;;;;;;4951823;28;20508;-49
2023/08/31 03:57:39;;;;;;;33.47;32.47;;;21.50;92.10;;;;;;4952416;29;20487;-48
2023/08/31 04:00:08;;;;;;;36.93;35.80;;;21.50;92.10;;;;;;4952218;29;20472;-51
2023/08/31 04:02:37;;;;;;;38.17;36.97;;;21.50;92.10;;;;;;4944672;29;20870;-48
2023/08/31 04:05:05;;;;;;;51.43;49.83;;;21.50;92.10;;;;;;4952008;28;20505;-49
2023/08/31 04:07:32;;;;;;;41.17;39.87;;;21.50;92.10;;;;;;4952272;28;20441;-48
2023/08/31 04:09:59;;;;;;;42.80;41.50;;;21.50;92.10;;;;;;4952107;28;20445;-48
2023/08/31 04:12:26;;;;;;;41.80;40.50;;;21.50;92.10;;;;;;4951982;28;20449;-52
2023/08/31 04:14:54;;;;;;;46.43;44.93;;;21.50;92.10;;;;;;4951682;28;20567;-48
2023/08/31 04:17:21;;;;;;;40.77;39.47;;;21.50;92.00;;;;;;4952052;28;20537;-48
2023/08/31 04:19:48;;;;;;;38.77;37.57;;;21.50;92.10;;;;;;4952018;29;20488;-47
2023/08/31 04:22:15;;;;;;;42.77;41.47;;;21.50;92.00;;;;;;4951858;28;20477;-48
2023/08/31 04:24:42;;;;;;;43.10;41.70;;;21.50;92.00;;;;;;4951601;28;20481;-48
2023/08/31 04:27:09;;;;;;;43.90;42.40;;;21.50;92.00;;;;;;4952291;28;20445;-49
2023/08/31 04:29:36;;;;;;;41.47;40.17;;;21.50;92.00;;;;;;4951984;28;20941;-50
2023/08/31 04:32:05;;;;;;;53.40;51.63;;;21.50;92.00;;;;;;4951776;29;20916;-49
2023/08/31 04:34:32;;;;;;;49.37;47.77;;;21.50;92.00;;;;;;4951561;28;20491;-49
2023/08/31 04:36:59;;;;;;;53.97;52.17;;;21.50;92.00;;;;;;4951932;28;20441;-49
2023/08/31 04:39:26;;;;;;;41.17;39.87;;;21.50;92.00;;;;;;4951527;28;20983;-50
2023/08/31 04:41:53;;;;;;;43.70;42.30;;;21.50;92.00;;;;;;4951589;28;20457;-50
2023/08/31 04:44:20;;;;;;;41.30;40.00;;;21.50;92.00;;;;;;4951612;28;20441;-50
2023/08/31 04:46:47;;;;;;;40.33;39.03;;;21.50;92.00;;;;;;4951416;28;20496;-50
2023/08/31 04:49:16;;;;;;;42.10;40.80;;;21.50;92.00;;;;;;4951605;28;20472;-50
2023/08/31 04:51:46;;;;;;;43.70;42.30;;;21.50;92.00;;;;;;4951598;28;20448;-49
2023/08/31 04:54:13;;;;;;;39.87;38.57;;;21.40;92.00;;;;;;4950263;28;20598;-50
2023/08/31 04:56:39;;;;;;;42.13;40.73;;;21.40;92.00;;;;;;4951460;28;20496;-49
2023/08/31 04:59:06;;;;;;;40.83;39.53;;;21.50;92.00;;;;;;4951453;28;20488;-49
2023/08/31 05:01:33;;;;;;;42.40;41.00;;;21.50;92.00;;;;;;4951228;28;20456;-51
2023/08/31 05:04:00;;;;;;;43.90;42.50;;;21.40;91.90;;;;;;4951262;28;20469;-50
2023/08/31 05:06:28;;;;;;;46.40;44.90;;;21.40;91.90;;;;;;4951004;29;20531;-48
2023/08/31 05:08:56;;;;;;;40.73;39.43;;;21.50;92.00;;;;;;4951123;28;20452;-49
2023/08/31 05:11:23;;;;;;;42.23;40.73;;;21.40;91.90;;;;;;4951166;28;20453;-48
2023/08/31 05:13:50;;;;;;;41.00;39.70;;;21.40;91.90;;;;;;4951150;28;20920;-48
2023/08/31 05:16:17;;;;;;;40.53;39.23;;;21.40;91.90;;;;;;4950640;28;20519;-50
2023/08/31 05:18:44;;;;;;;38.93;37.70;;;21.40;91.90;;;;;;4951172;28;20516;-49
2023/08/31 05:21:11;;;;;;;42.60;41.27;;;21.40;91.90;;;;;;4950865;28;20456;-50
2023/08/31 05:23:39;;;;;;;40.10;38.80;;;21.40;91.90;;;;;;4951208;28;20483;-50
2023/08/31 05:26:06;;;;;;;40.30;39.00;;;21.40;91.90;;;;;;4950669;28;20500;-49
2023/08/31 05:28:33;;;;;;;40.70;39.40;;;21.40;91.90;;;;;;4950735;29;20539;-49
2023/08/31 05:31:03;;;;;;;41.47;40.17;;;21.40;91.90;;;;;;4950779;28;20537;-49
2023/08/31 05:33:33;;;;;;;42.53;41.20;;;21.40;91.90;;;;;;4950749;28;20449;-51
2023/08/31 05:36:03;;;;;;;38.80;37.50;;;21.40;91.90;;;;;;4950729;29;20871;-51
2023/08/31 05:38:30;;;;;;;41.30;40.00;;;21.40;91.90;;;;;;4950752;28;20949;-49
2023/08/31 05:41:06;;;;;;;38.47;37.27;;;21.40;91.90;;;;;;4950797;28;20449;-51
2023/08/31 05:43:34;;;;;;;40.47;39.17;;;21.40;91.90;;;;;;4950879;28;20490;-50
2023/08/31 05:46:02;;;;;;;41.07;39.77;;;21.40;91.90;;;;;;4950501;29;20561;-49
2023/08/31 05:48:29;;;;;;;40.07;38.77;;;21.40;91.90;;;;;;4950570;29;20464;-50
2023/08/31 05:50:56;;;;;;;43.50;42.00;;;21.30;91.80;;;;;;4950741;28;20437;-49
2023/08/31 05:53:23;;;;;;;43.70;42.30;;;21.40;91.90;;;;;;4950638;28;20475;-49
2023/08/31 05:55:50;;;;;;;43.10;41.70;;;21.30;91.80;;;;;;4950375;28;20488;-49
2023/08/31 05:58:18;;;;;;;44.10;42.63;;;21.40;91.90;;;;;;4950448;28;20483;-49
2023/08/31 06:00:45;;;;;;;40.87;39.50;;;21.40;91.90;;;;;;4950647;28;20450;-49
2023/08/31 06:03:12;;;;;;;45.90;44.40;;;21.30;91.80;;;;;;4950680;28;20888;-50
2023/08/31 06:05:39;;;;;;;42.87;41.40;;;21.40;91.90;;;;;;4949938;28;20486;-51
2023/08/31 06:08:06;;;;;;;45.80;44.27;;;21.40;91.90;;;;;;4950513;28;20441;-51
2023/08/31 06:10:33;;;;;;;42.10;40.70;;;21.40;91.90;;;;;;4950319;29;20445;-53
2023/08/31 06:13:00;;;;;;;45.17;43.57;;;21.30;91.80;;;;;;4950416;29;20823;-48
2023/08/31 06:15:28;;;;;;;42.33;40.93;;;21.30;91.80;;;;;;4950000;29;20923;-48
2023/08/31 06:17:55;;;;;;;42.23;40.83;;;21.30;91.80;;;;;;4950328;28;20983;-48
2023/08/31 06:20:23;;;;;;;40.97;39.63;;;21.30;91.80;;;;;;4950184;28;20477;-49
2023/08/31 06:22:50;;;;;;;43.37;41.97;;;21.30;91.80;;;;;;4950388;29;20456;-50
2023/08/31 06:25:18;;;;;;;45.50;44.00;;;21.30;91.80;;;;;;4949781;29;20526;-49
2023/08/31 06:27:45;;;;;;;45.23;43.77;;;21.30;91.80;;;;;;4950281;28;20506;-51
2023/08/31 06:30:15;;;;;;;45.23;43.80;;;21.30;91.80;;;;;;4950156;28;20476;-49
2023/08/31 06:32:44;;;;;;;42.60;41.20;;;21.30;91.80;;;;;;4943027;28;20457;-50
2023/08/31 06:35:11;;;;;;;43.53;42.13;;;21.30;91.80;;;;;;4949714;28;20488;-48
2023/08/31 06:37:39;;;;;;;42.03;40.63;;;21.30;91.80;;;;;;4950168;28;20800;-47
2023/08/31 06:40:08;;;;;;;45.63;44.13;;;21.30;91.70;;;;;;4950078;28;20480;-48
2023/08/31 06:42:35;;;;;;;39.73;38.53;;;21.30;91.80;;;;;;4949895;28;20506;-48
2023/08/31 06:45:02;;;;;;;40.70;39.40;;;21.30;91.80;;;;;;4949630;28;20495;-48
2023/08/31 06:47:29;;;;;;;42.47;41.17;;;21.30;91.80;;;;;;4949815;28;20971;-48
2023/08/31 06:49:57;;;;;;;42.47;41.17;;;21.30;91.80;;;;;;4950084;29;20957;-48
2023/08/31 06:52:24;;;;;;;45.07;43.63;;;21.30;91.80;;;;;;4949883;29;20872;-48
2023/08/31 06:54:54;;;;;;;43.73;42.33;;;21.30;91.80;;;;;;4949669;28;20528;-48
2023/08/31 06:57:21;;;;;;;38.10;36.90;;;21.30;91.80;;;;;;4949924;28;20472;-49
2023/08/31 06:59:48;;;;;;;43.10;41.70;;;21.30;91.80;;;;;;4949782;29;20495;-48
2023/08/31 07:02:15;;;;;;;41.33;40.00;;;21.30;91.80;;;;;;4949851;28;20583;-48
2023/08/31 07:04:43;;;;;;;43.93;42.50;;;21.30;91.70;;;;;;4949574;28;20874;-48
2023/08/31 07:07:13;;;;;;;42.13;40.73;;;21.30;91.80;;;;;;4949778;28;20579;-50
2023/08/31 07:09:40;;;;;;;41.20;39.90;;;21.30;91.80;;;;;;4941907;28;20447;-49
2023/08/31 07:12:07;;;;;;;40.63;39.23;;;21.30;91.80;;;;;;4949636;28;20484;-48
2023/08/31 07:14:35;;;;;;;41.20;39.90;;;21.30;91.70;;;;;;4949142;28;20512;-47
2023/08/31 07:17:01;;;;;;;40.20;38.90;;;21.30;91.70;;;;;;4951080;28;20451;-47
2023/08/31 07:19:28;;;;;;;41.83;40.43;;;21.30;91.70;;;;;;4952683;28;20476;-48
2023/08/31 07:21:55;;;;;;;41.63;40.23;;;21.20;91.70;;;;;;4952903;28;20887;-48
2023/08/31 07:24:24;;;;;;;42.10;40.80;;;21.30;91.70;;;;;;4952466;28;20816;-48
2023/08/31 07:26:51;;;;;;;41.67;40.27;;;21.30;91.70;;;;;;4953098;28;20494;-50
2023/08/31 07:29:18;;;;;;;40.63;39.33;;;21.20;91.70;;;;;;4952546;29;20473;-49
2023/08/31 07:31:45;;;;;;;41.23;39.87;;;21.30;91.70;;;;;;4952658;28;20473;-49
2023/08/31 07:34:12;;;;;;;41.80;40.30;;;21.30;91.70;;;;;;4952425;28;20476;-49
2023/08/31 07:36:39;;;;;;;41.67;40.30;;;21.30;91.70;;;;;;4952441;28;20492;-50
2023/08/31 07:39:07;;;;;;;40.67;39.37;;;21.20;91.70;;;;;;4952813;29;20473;-49
2023/08/31 07:41:35;;;;;;;43.00;41.60;;;21.20;91.70;;;;;;4952737;28;20453;-49
2023/08/31 07:44:02;;;;;;;41.60;40.30;;;21.30;91.70;;;;;;4952359;28;20476;-50
2023/08/31 07:46:29;;;;;;;41.80;40.40;;;21.30;91.70;;;;;;4952133;28;20988;-51
2023/08/31 07:48:56;;;;;;;43.13;41.77;;;21.30;91.70;;;;;;4952430;28;20476;-49
2023/08/31 07:51:25;;;;;;;39.80;38.50;;;21.30;91.70;;;;;;4952359;29;20536;-49
2023/08/31 07:53:52;;;;;;;42.07;40.77;;;21.30;91.70;;;;;;4952485;28;20445;-51
2023/08/31 07:56:19;;;;;;;40.73;39.43;;;21.30;91.70;;;;;;4951974;29;20567;-50
2023/08/31 07:58:47;;;;;;;39.40;38.10;;;21.30;91.70;;;;;;4952205;29;20469;-50
2023/08/31 08:01:14;;;;;;;39.83;38.43;;;21.30;91.70;;;;;;4952302;29;20514;-50
2023/08/31 08:03:41;;;;;;;39.80;38.50;;;21.20;91.70;;;;;;4952405;29;20983;-51
2023/08/31 08:06:08;;;;;;;42.80;41.40;;;21.30;92.00;;;;;;4952228;28;20492;-50
2023/08/31 08:08:35;;;;;;;42.40;41.10;;;21.30;91.70;;;;;;4952128;28;20453;-50
2023/08/31 08:11:02;;;;;;;39.10;37.80;;;21.20;91.60;;;;;;4952077;29;20472;-50
2023/08/31 08:13:29;;;;;;;40.10;38.80;;;21.30;91.70;;;;;;4952009;29;20441;-50
2023/08/31 08:15:57;;;;;;;42.00;40.60;;;21.30;91.70;;;;;;4951919;28;20488;-53
2023/08/31 08:18:24;;;;;;;43.30;41.90;;;21.30;91.70;;;;;;4951962;28;20544;-52
2023/08/31 08:20:51;;;;;;;41.30;40.00;;;21.30;91.70;;;;;;4952140;29;20987;-52
2023/08/31 08:23:18;;;;;;;42.10;40.63;;;21.20;91.60;;;;;;4952005;29;20895;-52
2023/08/31 08:25:45;;;;;;;41.20;39.90;;;21.30;91.70;;;;;;4951618;28;20469;-51
2023/08/31 08:28:12;;;;;;;40.17;38.80;;;21.30;91.70;;;;;;4952035;28;20481;-51
2023/08/31 08:30:39;;;;;;;39.67;38.37;;;21.20;91.60;;;;;;4951727;28;20540;-50
2023/08/31 08:33:08;;;;;;;39.90;38.60;;;21.20;91.60;;;;;;4952076;29;20484;-54
2023/08/31 08:35:37;;;;;;;41.27;39.97;;;21.20;91.70;;;;;;4951341;28;20588;-53
2023/08/31 08:38:05;;;;;;;40.43;39.13;;;21.20;91.60;;;;;;4951806;28;20961;-50
2023/08/31 08:40:33;;;;;;;39.93;38.53;;;21.20;91.70;;;;;;4951754;28;20481;-52
2023/08/31 08:43:01;;;;;;;40.50;39.10;;;21.20;91.70;;;;;;4951776;29;20437;-54
2023/08/31 08:45:36;;;;;;;40.10;38.80;;;21.20;91.60;;;;;;4951350;28;20518;-51
2023/08/31 08:48:05;;;;;;;40.03;38.73;;;21.20;91.60;;;;;;4951606;28;21011;-53
2023/08/31 08:50:34;;;;;;;41.13;39.73;;;21.30;91.70;;;;;;4951517;28;20983;-50
2023/08/31 08:53:02;;;;;;;39.10;37.80;;;21.30;91.70;;;;;;4951704;28;20528;-51
2023/08/31 08:55:29;;;;;;;39.20;37.90;;;21.20;91.60;;;;;;4951093;29;20485;-49
2023/08/31 08:57:56;;;;;;;40.50;39.00;;;21.20;91.60;;;;;;4951592;28;20499;-52
2023/08/31 09:00:23;;;;;;;39.80;38.50;;;21.20;91.60;;;;;;4951470;28;20479;-50
2023/08/31 09:02:50;;;;;;;39.83;38.53;;;21.20;91.60;;;;;;4951463;29;20449;-49
2023/08/31 09:05:17;;;;;;;40.63;39.33;;;21.20;91.70;;;;;;4951207;29;20491;-49
2023/08/31 09:08:06;;;;;;;40.10;38.80;;;21.20;91.60;;;;;;4951227;28;20441;-51
2023/08/31 09:10:38;;;;;;;39.70;38.37;;;21.20;91.70;;;;;;4951510;28;20467;-49
2023/08/31 09:13:09;;;;;;;40.57;39.27;;;21.20;91.60;;;;;;4951158;29;20472;-49
2023/08/31 09:15:43;;;;;;;42.83;41.43;;;21.20;91.60;;;;;;4950772;28;20488;-49
2023/08/31 09:18:17;;;;;;;38.97;37.67;;;21.20;91.60;;;;;;4951173;28;20471;-49
2023/08/31 09:20:45;;;;;;;39.67;38.37;;;21.20;91.60;;;;;;4951032;28;20472;-48
2023/08/31 09:23:14;;;;;;;39.47;38.07;;;21.20;91.60;;;;;;4950978;29;20441;-49
2023/08/31 09:25:45;;;;;;;39.40;38.10;;;21.20;91.60;;;;;;4950440;29;20473;-49
2023/08/31 09:28:13;;;;;;;40.87;39.57;;;21.20;91.60;;;;;;4951053;28;20468;-48
2023/08/31 09:30:41;;;;;;;37.70;36.40;;;21.20;91.60;;;;;;4950759;28;20449;-48
2023/08/31 09:33:09;;;;;;;40.40;39.03;;;21.20;91.60;;;;;;4950710;29;20445;-47
2023/08/31 09:35:40;;;;;;;41.17;39.77;;;21.20;91.60;;;;;;4950395;28;20854;-48
2023/08/31 09:38:09;;;;;;;39.50;38.20;;;21.20;91.60;;;;;;4950926;28;20445;-48
2023/08/31 09:40:37;;;;;;;40.50;39.10;;;21.20;91.60;;;;;;4950312;28;20480;-48
2023/08/31 09:43:04;;;;;;;39.70;38.30;;;21.20;91.60;;;;;;4950829;28;20479;-48
2023/08/31 09:45:32;;;;;;;42.60;41.20;;;21.20;91.60;;;;;;4950371;29;20503;-48
2023/08/31 09:48:01;;;;;;;43.17;41.67;;;21.20;91.60;;;;;;4950724;28;20472;-48
2023/08/31 09:50:30;;;;;;;43.03;41.63;;;21.20;91.60;;;;;;4950499;28;20457;-48
2023/08/31 09:53:01;;;;;;;42.93;41.53;;;21.30;91.60;;;;;;4950635;29;20928;-48
2023/08/31 09:55:29;;;;;;;42.33;40.93;;;21.30;91.60;;;;;;4950136;28;20567;-48
2023/08/31 09:57:59;;;;;;;40.10;38.80;;;21.20;91.60;;;;;;4950638;28;20437;-47
2023/08/31 10:00:27;;;;;;;38.93;37.63;;;21.30;91.60;;;;;;4950451;28;20477;-51
2023/08/31 10:02:57;;;;;;;40.43;39.03;;;21.20;91.60;;;;;;4950551;29;20473;-49
2023/08/31 10:05:25;;;;;;;38.57;37.27;;;21.30;91.70;;;;;;4950296;28;20489;-49
2023/08/31 10:07:52;;;;;;;40.63;39.23;;;21.30;91.60;;;;;;4950582;28;20472;-51
2023/08/31 10:10:20;;;;;;;43.47;41.97;;;21.30;91.60;;;;;;4950285;28;20462;-49
2023/08/31 10:12:49;;;;;;;43.13;41.67;;;21.30;91.60;;;;;;4950297;28;20503;-52
2023/08/31 10:15:18;;;;;;;41.40;40.10;;;21.30;91.60;;;;;;4950101;28;21000;-48
2023/08/31 10:17:45;;;;;;;38.97;37.67;;;21.30;91.60;;;;;;4950314;28;20744;-48
2023/08/31 10:20:14;;;;;;;39.60;38.30;;;21.20;91.60;;;;;;4950364;28;20476;-50
2023/08/31 10:22:41;;;;;;;38.93;37.53;;;21.30;91.60;;;;;;4950198;28;20510;-49
2023/08/31 10:25:11;;;;;;;38.37;37.07;;;21.20;91.60;;;;;;4949785;28;20530;-48
2023/08/31 10:27:39;;;;;;;39.30;37.97;;;21.20;91.50;;;;;;4950626;28;20456;-49
2023/08/31 10:30:31;;;;;;;37.57;36.27;;;21.30;91.60;;;;;;4950308;28;20463;-49
2023/08/31 10:33:32;;;;;;;37.80;36.47;;;21.30;91.60;;;;;;4952821;28;20536;-49
2023/08/31 10:35:59;;;;;;;38.20;36.90;;;21.20;91.50;;;;;;4890842;29;20511;-51
2023/08/31 10:38:28;;;;;;;37.40;36.20;;;21.30;91.50;;;;;;4890746;29;20564;-49
2023/08/31 10:41:19;;;;;;;38.23;36.93;;;21.30;91.50;;;;;;4918323;29;20531;-51
2023/08/31 10:43:48;;;;;;;37.77;36.57;;;21.30;91.60;;;;;;4950115;29;20489;-50
2023/08/31 10:46:31;;;;;;;39.87;38.47;;;21.30;91.60;;;;;;4949961;28;20461;-48
2023/08/31 10:49:00;;;;;;;41.83;40.43;;;21.30;91.60;;;;;;4943382;28;20477;-48
2023/08/31 10:51:29;;;;;;;39.03;37.70;;;21.30;91.60;;;;;;4950670;28;20480;-49
2023/08/31 10:54:10;;;;;;;42.90;41.50;;;21.30;91.50;;;;;;4953301;29;20472;-50
2023/08/31 10:57:12;;;;;;;44.37;42.87;;;21.30;91.50;;;;;;4953318;29;20511;-53
2023/08/31 10:59:46;;;;;;;42.97;41.57;;;21.30;91.50;;;;;;4953143;28;20453;-49
2023/08/31 11:02:31;;;;;;;40.93;39.50;;;21.30;91.50;;;;;;4953240;29;20447;-48
2023/08/31 11:05:03;;;;;;;39.10;37.80;;;21.30;91.50;;;;;;4946243;29;20478;-51
2023/08/31 11:07:30;;;;;;;39.20;37.90;;;21.30;91.50;;;;;;4953016;28;20498;-49
2023/08/31 11:10:09;;;;;;;40.87;39.50;;;21.30;91.50;;;;;;4953054;28;20491;-50
2023/08/31 11:12:36;;;;;;;40.37;39.07;;;21.30;91.60;;;;;;4953019;29;20451;-49
2023/08/31 11:15:04;;;;;;;40.77;39.47;;;21.30;91.50;;;;;;4952763;28;20488;-51
2023/08/31 11:17:33;;;;;;;43.70;42.30;;;21.30;91.60;;;;;;4952718;28;21006;-50
2023/08/31 11:20:00;;;;;;;40.80;39.40;;;21.30;91.60;;;;;;4953170;28;20479;-55
2023/08/31 11:22:28;;;;;;;40.80;39.50;;;21.30;91.60;;;;;;4952813;29;20482;-50
2023/08/31 11:24:55;;;;;;;41.30;40.00;;;21.30;91.60;;;;;;4952606;28;20559;-52
2023/08/31 11:27:22;;;;;;;45.57;43.97;;;21.30;91.60;;;;;;4952821;28;20551;-50
2023/08/31 11:29:49;;;;;;;45.33;43.83;;;21.30;91.50;;;;;;4952653;28;20480;-52
2023/08/31 11:32:16;;;;;;;44.07;42.67;;;21.30;91.60;;;;;;4952862;29;20448;-49
2023/08/31 11:34:45;;;;;;;44.17;42.77;;;21.30;91.50;;;;;;4952322;29;20483;-51
2023/08/31 11:37:15;;;;;;;43.97;42.47;;;21.30;91.50;;;;;;4952495;28;21077;-51
2023/08/31 11:39:43;;;;;;;43.33;41.90;;;21.40;91.60;;;;;;4952711;28;20456;-51
2023/08/31 11:42:10;;;;;;;42.57;41.17;;;21.30;91.50;;;;;;4952614;29;20473;-54
2023/08/31 11:44:37;;;;;;;43.40;41.90;;;21.40;91.60;;;;;;4952241;29;20476;-51
2023/08/31 11:47:04;;;;;;;44.67;43.17;;;21.40;91.60;;;;;;4952591;28;20484;-49
2023/08/31 11:49:32;;;;;;;45.97;44.13;;;21.40;91.60;;;;;;4952439;29;20481;-52
2023/08/31 11:52:00;;;;;;;42.43;41.03;;;21.40;91.60;;;;;;4952540;28;20444;-49
2023/08/31 11:54:27;;;;;;;43.33;41.83;;;21.40;91.60;;;;;;4952034;29;20503;-51
2023/08/31 11:56:54;;;;;;;43.40;42.00;;;21.40;91.60;;;;;;4952276;28;20579;-52
2023/08/31 11:59:22;;;;;;;42.87;41.47;;;21.40;91.60;;;;;;4952376;28;20528;-51
2023/08/31 12:01:50;;;;;;;42.50;41.10;;;21.40;91.60;;;;;;4952239;28;20445;-51
2023/08/31 12:04:22;;;;;;;45.20;43.70;;;21.40;91.50;;;;;;4951889;28;20507;-48
2023/08/31 12:06:51;;;;;;;46.17;44.67;;;21.40;91.50;;;;;;4952137;28;20441;-48
2023/08/31 12:09:19;;;;;;;47.90;46.30;;;21.40;91.60;;;;;;4952172;28;20533;-48
2023/08/31 12:11:51;;;;;;;48.10;46.50;;;21.40;91.50;;;;;;4952278;28;20488;-48
2023/08/31 12:14:22;;;;;;;46.47;44.97;;;21.40;91.50;;;;;;4952036;28;20441;-48
2023/08/31 12:16:50;;;;;;;48.27;46.67;;;21.40;91.60;;;;;;4951949;28;20513;-48
2023/08/31 12:19:17;;;;;;;50.60;49.00;;;21.40;91.50;;;;;;4952048;28;20507;-49
2023/08/31 12:21:46;;;;;;;48.80;47.20;;;21.40;91.50;;;;;;4951947;29;20445;-48
2023/08/31 12:24:13;;;;;;;46.10;44.50;;;21.40;91.50;;;;;;4952046;28;20449;-51
2023/08/31 12:26:41;;;;;;;47.57;46.07;;;21.50;91.60;;;;;;4951668;28;20496;-48
2023/08/31 12:29:08;;;;;;;45.37;43.87;;;21.40;91.50;;;;;;4951797;28;20956;-48
2023/08/31 12:31:35;;;;;;;46.30;44.80;;;21.50;91.60;;;;;;4951822;28;20485;-51
2023/08/31 12:34:05;;;;;;;45.90;44.40;;;21.50;91.60;;;;;;4951810;28;20445;-48